createdAt,value
2023-03-26T00:02:24.724Z,98532.81
2023-03-26T00:07:27.897Z,98531.38
2023-03-26T00:12:31.945Z,98526.22
2023-03-26T00:17:34.697Z,98535.06
2023-03-26T00:22:37.581Z,98530.13
2023-03-26T00:27:41.798Z,98539.19
2023-03-26T00:32:44.615Z,98534.28
2023-03-26T00:37:58.273Z,98529.94
2023-03-26T00:43:02.521Z,98514.72
2023-03-26T00:48:05.728Z,98514.94
2023-03-26T00:53:11.993Z,98508.34
2023-03-26T00:58:16.665Z,98508.59
2023-03-26T01:03:26.926Z,98493.34
2023-03-26T01:08:33.331Z,98485.75
2023-03-26T01:13:39.347Z,98487.63
2023-03-26T01:18:42.118Z,98477.13
2023-03-26T01:23:48.985Z,98469.31
2023-03-26T01:28:56.758Z,98459.66
2023-03-26T01:34:03.754Z,98456.97
2023-03-26T01:39:09.968Z,98443.22
2023-03-26T01:44:19.262Z,98446.91
2023-03-26T01:49:22.268Z,98439.94
2023-03-26T01:54:29.659Z,98429.44
2023-03-26T01:59:50.370Z,98418.13
2023-03-26T02:04:56.962Z,98416.31
2023-03-26T02:10:05.535Z,98417.56
2023-03-26T02:15:11.437Z,98409.72
2023-03-26T02:20:14.961Z,98404.38
2023-03-26T02:25:19.528Z,98404.59
2023-03-26T02:30:26.666Z,98400.09
2023-03-26T02:35:32.489Z,98385.28
2023-03-26T02:40:37.395Z,98374.59
2023-03-26T02:45:42.919Z,98372.13
2023-03-26T02:51:06.639Z,98359.19
2023-03-26T02:56:33.923Z,98356.72
2023-03-26T03:02:07.122Z,98333.34
2023-03-26T03:07:14.316Z,98324.72
2023-03-26T03:12:17.049Z,98324.09
2023-03-26T03:17:21.761Z,98318.53
2023-03-26T03:22:24.620Z,98312.16
2023-03-26T03:27:27.382Z,98311.56
2023-03-26T03:32:42.764Z,98306.63
2023-03-26T03:37:46.194Z,98293.69
2023-03-26T03:42:49.055Z,98293.06
2023-03-26T03:48:02.882Z,98287.13
2023-03-26T03:53:18.487Z,98281.19
2023-03-26T03:58:28.013Z,98287.34
2023-03-26T04:03:38.804Z,98274.81
2023-03-26T04:08:47.293Z,98264.34
2023-03-26T04:13:50.269Z,98257.16
2023-03-26T04:19:10.703Z,98241.31
2023-03-26T04:24:13.775Z,98236.22
2023-03-26T04:29:44.038Z,98225.53
2023-03-26T04:34:53.802Z,98218.75
2023-03-26T04:40:00.458Z,98208.69
2023-03-26T04:45:14.754Z,98201.09
2023-03-26T04:50:22.455Z,98196.59
2023-03-26T04:55:27.148Z,98195.56
2023-03-26T05:00:39.172Z,98181.59
2023-03-26T05:05:43.406Z,98169.28
2023-03-26T05:10:46.475Z,98164.13
2023-03-26T05:15:55.588Z,98164.38
2023-03-26T05:21:11.137Z,98160.84
2023-03-26T05:26:15.682Z,98156.75
2023-03-26T05:31:21.086Z,98147.94
2023-03-26T05:36:28.285Z,98137.69
2023-03-26T05:41:44.023Z,98135.84
2023-03-26T05:46:47.060Z,98124.34
2023-03-26T05:51:57.803Z,98118.19
2023-03-26T05:57:28.392Z,98110.38
2023-03-26T06:03:00.760Z,98098.09
2023-03-26T06:08:31.225Z,98102.00
2023-03-26T06:13:33.932Z,98095.63
2023-03-26T06:18:37.303Z,98083.94
2023-03-26T06:24:00.789Z,98077.97
2023-03-26T06:29:25.979Z,98085.75
2023-03-26T06:34:54.704Z,98079.00
2023-03-26T06:39:59.052Z,98072.22
2023-03-26T06:45:20.442Z,98061.56
2023-03-26T06:50:48.949Z,98059.72
2023-03-26T06:56:22.284Z,98049.47
2023-03-26T07:01:34.808Z,98045.75
2023-03-26T07:06:55.943Z,98038.81
2023-03-26T07:12:18.484Z,98018.69
2023-03-26T07:17:39.914Z,98021.38
2023-03-26T07:22:57.920Z,98017.84
2023-03-26T07:28:16.963Z,98009.84
2023-03-26T07:33:51.981Z,98001.66
2023-03-26T07:39:32.201Z,97999.19
2023-03-26T07:45:04.523Z,97990.59
2023-03-26T07:50:19.830Z,97983.41
2023-03-26T07:55:48.000Z,97983.16
2023-03-26T08:01:23.101Z,97976.22
2023-03-26T08:06:33.738Z,97969.25
2023-03-26T08:11:59.539Z,97974.59
2023-03-26T08:17:08.827Z,97964.91
2023-03-26T08:22:16.732Z,97963.91
2023-03-26T08:27:23.975Z,97956.91
2023-03-26T08:32:28.713Z,97963.28
2023-03-26T08:37:31.667Z,97960.03
2023-03-26T08:43:23.532Z,97960.03
2023-03-26T08:48:51.267Z,97957.34
2023-03-26T08:54:06.521Z,97952.44
2023-03-26T08:59:44.760Z,97945.06
2023-03-26T09:05:41.123Z,97948.75
2023-03-26T09:11:18.277Z,97927.84
2023-03-26T09:17:02.430Z,97946.31
2023-03-26T09:22:28.440Z,97942.78
2023-03-26T09:27:41.737Z,97934.78
2023-03-26T09:33:17.709Z,97936.44
2023-03-26T09:38:38.272Z,97925.16
2023-03-26T09:43:55.775Z,97925.50
2023-03-26T09:49:11.784Z,97921.91
2023-03-26T09:54:46.376Z,97913.53
2023-03-26T10:00:10.814Z,97905.84
2023-03-26T10:05:28.208Z,97898.75
2023-03-26T10:10:37.026Z,97893.50
2023-03-26T10:15:53.318Z,97885.47
2023-03-26T10:21:01.093Z,97883.00
2023-03-26T10:26:27.141Z,97878.75
2023-03-26T10:31:44.785Z,97874.94
2023-03-26T10:36:51.507Z,97861.59
2023-03-26T10:42:00.526Z,97858.31
2023-03-26T10:47:14.297Z,97851.41
2023-03-26T10:52:20.820Z,97837.97
2023-03-26T10:57:35.145Z,97825.59
2023-03-26T11:02:41.655Z,97827.88
2023-03-26T11:07:51.708Z,97825.66
2023-03-26T11:12:57.001Z,97814.84
2023-03-26T11:18:26.040Z,97816.63
2023-03-26T11:23:36.007Z,97810.97
2023-03-26T11:29:03.552Z,97809.09
2023-03-26T11:34:15.699Z,97804.72
2023-03-26T11:39:23.449Z,97799.09
2023-03-26T11:44:28.771Z,97801.41
2023-03-26T11:49:33.353Z,97792.13
2023-03-26T11:54:36.925Z,97791.44
2023-03-26T11:59:55.822Z,97789.97
2023-03-26T12:05:17.861Z,97794.19
2023-03-26T12:10:29.492Z,97783.03
2023-03-26T12:15:32.664Z,97791.25
2023-03-26T12:21:04.527Z,97789.28
2023-03-26T12:26:15.904Z,97785.94
2023-03-26T12:31:19.671Z,97781.78
2023-03-26T12:36:26.602Z,97783.34
2023-03-26T12:43:40.206Z,97788.03
2023-03-26T12:47:57.132Z,97786.88
2023-03-26T12:53:06.800Z,97790.28
2023-03-26T12:58:23.604Z,97798.09
2023-03-26T13:03:41.773Z,97791.88
2023-03-26T13:09:26.321Z,97789.28
2023-03-26T13:14:52.766Z,97795.28
2023-03-26T13:20:01.938Z,97801.91
2023-03-26T13:25:18.187Z,97802.00
2023-03-26T13:30:31.118Z,97796.63
2023-03-26T13:35:37.649Z,97803.94
2023-03-26T13:40:47.898Z,97803.03
2023-03-26T13:45:57.420Z,97803.59
2023-03-26T13:51:04.887Z,97799.53
2023-03-26T13:56:11.369Z,97812.38
2023-03-26T14:01:17.482Z,97805.06
2023-03-26T14:06:31.983Z,97813.84
2023-03-26T14:11:43.599Z,97823.91
2023-03-26T14:16:51.516Z,97820.09
2023-03-26T14:22:18.833Z,97831.41
2023-03-26T14:27:45.603Z,97839.13
2023-03-26T14:33:03.203Z,97831.91
2023-03-26T14:38:25.028Z,97845.06
2023-03-26T14:43:57.080Z,97843.34
2023-03-26T14:49:10.925Z,97849.88
2023-03-26T14:54:15.862Z,97861.31
2023-03-26T14:59:47.444Z,97863.09
2023-03-26T15:05:19.464Z,97867.31
2023-03-26T15:10:49.582Z,97874.38
2023-03-26T15:16:38.154Z,97885.94
2023-03-26T15:22:18.145Z,97890.59
2023-03-26T15:27:51.963Z,97901.78
2023-03-26T15:33:14.260Z,97906.44
2023-03-26T15:38:57.118Z,97913.31
2023-03-26T15:44:36.141Z,97916.47
2023-03-26T15:49:52.161Z,97920.66
2023-03-26T15:54:59.598Z,97931.81
2023-03-26T16:00:22.768Z,97937.31
2023-03-26T16:05:33.274Z,97947.44
2023-03-26T16:10:40.875Z,97950.34
2023-03-26T16:15:45.309Z,97960.91
2023-03-26T16:20:50.940Z,97969.22
2023-03-26T16:26:08.999Z,97973.63
2023-03-26T16:31:38.839Z,97982.13
2023-03-26T16:36:44.302Z,97992.09
2023-03-26T16:42:06.114Z,98007.00
2023-03-26T16:47:29.400Z,98016.97
2023-03-26T16:52:42.813Z,98029.78
2023-03-26T16:57:56.009Z,98045.91
2023-03-26T17:03:12.923Z,98062.22
2023-03-26T17:08:18.994Z,98060.88
2023-03-26T17:13:45.893Z,98075.31
2023-03-26T17:18:55.484Z,98080.28
2023-03-26T17:24:15.592Z,98096.00
2023-03-26T17:29:33.939Z,98110.84
2023-03-26T17:34:56.540Z,98117.88
2023-03-26T17:40:35.835Z,98126.97
2023-03-26T17:45:39.343Z,98143.66
2023-03-26T17:50:48.601Z,98149.69
2023-03-26T17:55:52.156Z,98166.16
2023-03-26T18:01:02.072Z,98184.28
2023-03-26T18:06:12.076Z,98186.59
2023-03-26T18:11:36.833Z,98200.41
2023-03-26T18:16:42.242Z,98212.56
2023-03-26T18:21:50.017Z,98234.41
2023-03-26T18:26:56.014Z,98232.19
2023-03-26T18:32:02.466Z,98244.94
2023-03-26T18:37:18.150Z,98255.03
2023-03-26T18:42:23.677Z,98265.13
2023-03-26T18:47:29.233Z,98283.25
2023-03-26T18:52:33.518Z,98292.75
2023-03-26T18:57:36.486Z,98307.59
2023-03-26T19:02:39.802Z,98320.34
2023-03-26T19:07:45.790Z,98319.72
2023-03-26T19:13:14.474Z,98335.78
2023-03-26T19:18:18.639Z,98343.00
2023-03-26T19:23:57.625Z,98349.38
2023-03-26T19:29:00.739Z,98358.66
2023-03-26T19:34:13.559Z,98371.22
2023-03-26T19:39:46.167Z,98378.81
2023-03-26T19:45:19.317Z,98391.78
2023-03-26T19:50:26.484Z,98404.78
2023-03-26T19:55:30.602Z,98408.69
2023-03-26T20:00:33.902Z,98416.09
2023-03-26T20:05:37.431Z,98420.63
2023-03-26T20:10:41.657Z,98433.56
2023-03-26T20:15:47.132Z,98443.44
2023-03-26T20:20:50.630Z,98446.28
2023-03-26T20:25:54.930Z,98456.59
2023-03-26T20:30:58.062Z,98473.03
2023-03-26T20:36:01.678Z,98480.44
2023-03-26T20:41:06.155Z,98494.84
2023-03-26T20:46:12.301Z,98505.72
2023-03-26T20:51:15.562Z,98510.66
2023-03-26T20:56:21.800Z,98517.84
2023-03-26T21:01:24.992Z,98528.94
2023-03-26T21:06:27.759Z,98536.66
2023-03-26T21:11:46.756Z,98557.94
2023-03-26T21:16:50.044Z,98556.22
2023-03-26T21:21:59.072Z,98564.59
2023-03-26T21:27:09.970Z,98576.66
2023-03-26T21:32:14.297Z,98580.94
2023-03-26T21:37:18.827Z,98597.47
2023-03-26T21:48:30.018Z,98625.31
2023-03-26T21:53:33.174Z,98633.72
2023-03-26T21:58:45.941Z,98640.72
2023-03-26T22:03:56.826Z,98657.06
2023-03-26T22:09:00.491Z,98663.72
2023-03-26T22:14:03.211Z,98677.75
2023-03-26T22:19:07.369Z,98695.16
2023-03-26T22:25:02.897Z,98712.63
2023-03-26T22:30:06.486Z,98720.34
2023-03-26T22:35:20.573Z,98732.47
2023-03-26T22:40:23.348Z,98746.69
2023-03-26T22:45:26.141Z,98750.91
2023-03-26T22:50:30.414Z,98768.72
2023-03-26T22:55:33.147Z,98783.66
2023-03-26T23:00:36.173Z,98794.00
2023-03-26T23:05:40.276Z,98799.38
2023-03-26T23:10:43.907Z,98810.97
2023-03-26T23:15:49.619Z,98814.69
2023-03-26T23:20:55.371Z,98825.69
2023-03-26T23:25:59.766Z,98851.50
2023-03-26T23:31:04.250Z,98856.03
2023-03-26T23:36:09.721Z,98860.97
2023-03-26T23:41:15.267Z,98873.56
2023-03-26T23:46:22.029Z,98885.50
2023-03-26T23:51:26.294Z,98899.75
2023-03-26T23:56:29.678Z,98909.63
